Time;durP1;ratioP1;P1;durP2;ratioP2;P2;SDS_P1;SDS_P2;PMS_P1;PMS_P2;Temp;Humidity;BMP_temperature;BMP_pressure;BME280_temperature;BME280_humidity;BME280_pressure;Samples;Min_cycle;Max_cycle;Signal;HPM_P1;HPM_P2
2021/06/17 00:13:26;;;;;;;1.58;0.40;;;;;;;17.11;50.56;100538.69;1223531;22;21458;-79
2021/06/17 00:16:18;;;;;;;0.75;0.50;;;;;;;17.05;50.55;100542.50;1219332;22;21499;-79
2021/06/17 00:22:18;;;;;;;2.33;0.60;;;;;;;16.94;50.87;100533.44;1220714;22;21476;-79
2021/06/17 00:37:28;;;;;;;2.00;0.40;;;;;;;16.57;51.20;100538.78;1225040;22;21552;-79
2021/06/17 00:40:22;;;;;;;2.00;0.40;;;;;;;16.53;51.10;100539.00;3728872;22;21002;-79
2021/06/17 00:46:01;;;;;;;;;;;;;;;16.40;50.81;100533.47;1229830;22;21474;-79
2021/06/17 00:48:56;;;;;;;1.13;0.50;;;;;;;16.33;51.50;100532.09;1226749;22;21392;-80
2021/06/17 00:54:48;;;;;;;2.35;0.55;;;;;;;16.19;51.98;100532.75;1217230;22;21554;-79
2021/06/17 01:56:35;;;;;;;7.03;0.60;;;;;;;14.99;55.04;100536.50;1231039;22;22527;-80
2021/06/17 02:08:44;;;;;;;1.10;0.40;;;;;;;14.75;55.35;100534.03;1225930;22;21420;-79
2021/06/17 02:14:44;;;;;;;2.35;0.40;;;;;;;14.63;55.46;100538.94;1224971;22;21405;-80
2021/06/17 02:20:30;;;;;;;5.93;1.50;;;;;;;14.50;55.79;100546.50;1230955;22;21440;-80
2021/06/17 02:23:23;;;;;;;3.50;0.38;;;;;;;14.45;55.98;100537.91;1229549;22;21496;-79
2021/06/17 02:26:16;;;;;;;1.23;0.50;;;;;;;14.39;56.02;100543.41;1224267;22;21500;-79
2021/06/17 02:50:25;;;;;;;3.55;0.68;;;;;;;13.95;57.33;100530.31;1227372;22;21462;-80
2021/06/17 02:56:09;;;;;;;5.53;1.63;;;;;;;13.84;59.65;100541.22;3705271;22;20035;-80
2021/06/17 02:59:01;;;;;;;4.15;0.95;;;;;;;13.79;57.87;100534.41;1217353;22;21511;-79
2021/06/17 03:08:05;;;;;;;5.85;0.60;;;;;;;13.62;58.44;100530.66;1226292;22;22021;-80
2021/06/17 03:10:58;;;;;;;4.63;0.68;;;;;;;13.56;58.62;100530.91;1225748;22;21973;-80
2021/06/17 03:26:20;;;;;;;3.60;0.93;;;;;;;13.33;59.33;100534.41;1227215;22;21538;-80
2021/06/17 03:32:20;;;;;;;6.13;1.10;;;;;;;13.11;61.10;100523.78;1152357;22;20219;-80
2021/06/17 03:47:31;;;;;;;1.80;0.60;;;;;;;13.06;60.23;100559.78;1225735;22;21408;-79
2021/06/17 03:50:24;;;;;;;1.60;0.52;;;;;;;13.05;60.36;100563.34;3685830;22;21097;-79
2021/06/17 03:52:59;;;;;;;1.70;0.60;;;;;;;13.02;61.88;100560.81;3691062;22;20032;-80
2021/06/17 04:17:07;;;;;;;2.90;0.60;;;;;;;12.99;60.26;100597.63;1222592;22;21494;-80
2021/06/17 04:23:01;;;;;;;1.98;0.73;;;;;;;12.96;60.64;100605.59;1220608;22;21933;-80
2021/06/17 04:28:47;;;;;;;1.73;0.40;;;;;;;12.91;60.88;100615.38;1216996;23;21504;-80
2021/06/17 04:34:35;;;;;;;3.78;0.70;;;;;;;12.88;61.08;100607.63;1227893;22;21990;-79
2021/06/17 04:40:21;;;;;;;5.63;0.65;;;;;;;12.85;61.14;100620.81;1229047;22;21493;-80
2021/06/17 04:46:17;;;;;;;3.67;0.70;;;;;;;12.80;61.87;100617.50;1224566;22;22274;-79
2021/06/17 04:49:13;;;;;;;2.28;0.80;;;;;;;12.78;61.48;100619.31;1226872;22;21562;-79
2021/06/17 04:52:07;;;;;;;2.13;0.68;;;;;;;12.77;61.53;100625.44;1221168;22;21602;-79
2021/06/17 04:57:42;;;;;;;4.20;0.75;;;;;;;12.75;61.61;100640.38;1222114;22;21397;-80
2021/06/17 05:00:34;;;;;;;3.08;0.68;;;;;;;12.74;61.84;100634.28;1222134;22;21621;-79
2021/06/17 05:31:35;;;;;;;4.63;0.85;;;;;;;12.61;62.56;100691.44;1226932;22;21404;-80
2021/06/17 05:34:27;;;;;;;4.45;1.02;;;;;;;12.61;62.36;100701.91;1226866;22;22051;-80
2021/06/17 05:40:08;;;;;;;2.85;1.20;;;;;;;12.65;63.04;100705.31;723309;22;21485;-80
2021/06/17 05:43:01;;;;;;;2.15;0.65;;;;;;;12.68;62.89;100703.47;1226604;22;21581;-80
2021/06/17 05:57:50;;;;;;;2.75;0.73;;;;;;;12.88;66.18;100721.19;3756022;22;20039;-80
2021/06/17 06:00:42;;;;;;;4.10;0.75;;;;;;;12.94;63.81;100722.75;1234959;22;21579;-79
2021/06/17 06:27:34;;;;;;;3.92;0.77;;;;;;;13.48;63.89;100695.59;1229621;22;21484;-79
2021/06/17 06:33:41;;;;;;;3.35;0.75;;;;;;;13.65;66.12;100698.50;1153215;22;20174;-80
2021/06/17 07:25:54;;;;;;;3.33;0.90;;;;;;;15.26;61.92;100724.72;1217287;22;21495;-80
2021/06/17 07:35:02;;;;;;;1.70;0.70;;;;;;;15.42;61.11;100745.13;1228385;22;21431;-80
2021/06/17 08:06:25;;;;;;;3.05;0.80;;;;;;;15.54;60.66;100778.81;1228192;22;21909;-79
2021/06/17 08:28:04;;;;;;;5.22;0.93;;;;;;;15.96;59.43;100796.38;1221406;22;21478;-79
2021/06/17 08:33:57;;;;;;;2.78;0.50;;;;;;;16.08;58.51;100801.97;1266353;22;20176;-79
2021/06/17 08:39:44;;;;;;;2.33;0.60;;;;;;;16.23;58.07;100795.16;3776099;22;20992;-79
2021/06/17 08:51:46;;;;;;;2.92;0.60;;;;;;;16.59;56.90;100802.34;3727787;22;20908;-79
2021/06/17 09:04:03;;;;;;;3.33;0.85;;;;;;;16.93;54.70;100808.69;3693466;22;20043;-79
2021/06/17 09:07:12;;;;;;;4.15;1.02;;;;;;;16.99;55.17;100800.50;3799323;22;20088;-78
2021/06/17 09:15:23;;;;;;;3.83;0.50;;;;;;;17.16;54.26;100792.63;1230487;22;20175;-79
2021/06/17 09:21:17;;;;;;;2.97;0.63;;;;;;;17.44;55.02;100802.69;3711904;22;21341;-79
2021/06/17 09:30:10;;;;;;;2.17;0.73;;;;;;;17.79;54.17;100803.59;3732358;22;20566;-80
2021/06/17 09:35:49;;;;;;;3.05;0.70;;;;;;;18.23;53.92;100797.75;3841071;22;20478;-81
2021/06/17 09:38:25;;;;;;;1.50;0.65;;;;;;;18.59;51.90;100805.50;3872842;22;20039;-80
2021/06/17 09:41:29;;;;;;;3.28;0.88;;;;;;;19.00;52.76;100806.84;3828897;22;20688;-80
2021/06/17 09:47:05;;;;;;;2.85;0.55;;;;;;;19.60;48.71;100799.00;3783164;22;20060;-81
2021/06/17 09:52:38;;;;;;;1.98;0.60;;;;;;;20.24;50.40;100795.16;3720469;22;20036;-81
2021/06/17 09:55:12;;;;;;;3.45;0.75;;;;;;;20.67;47.83;100803.09;3793909;22;20055;-82
2021/06/17 09:58:08;;;;;;;1.77;0.60;;;;;;;21.07;48.94;100811.19;3740306;22;20068;-82
2021/06/17 10:06:46;;;;;;;5.25;0.60;;;;;;;22.17;47.64;100801.19;3717712;22;20059;-82
2021/06/17 10:09:38;;;;;;;5.45;1.15;;;;;;;22.38;47.00;100807.66;3693835;22;20052;-81
2021/06/17 10:15:10;;;;;;;1.83;0.60;;;;;;;22.42;44.18;100811.81;3805844;22;20682;-82
2021/06/17 10:18:03;;;;;;;2.15;0.57;;;;;;;22.45;45.84;100803.59;3769627;22;20032;31
2021/06/17 10:20:55;;;;;;;1.30;0.50;;;;;;;22.60;45.35;100812.31;3682371;22;20651;-81
2021/06/17 10:26:40;;;;;;;1.70;0.60;;;;;;;22.83;43.85;100816.00;3822490;22;20072;-81
2021/06/17 10:32:36;;;;;;;0.40;0.20;;;;;;;22.79;44.42;100817.16;1277116;22;20347;-80
2021/06/17 10:35:29;;;;;;;0.75;0.50;;;;;;;22.70;44.04;100823.16;1300370;22;20193;-80
2021/06/17 10:44:44;;;;;;;2.08;0.70;;;;;;;22.71;43.19;100820.41;3823289;22;20036;-81
2021/06/17 10:53:14;;;;;;;3.67;1.08;;;;;;;22.94;41.43;100826.75;3778760;22;20053;-81
2021/06/17 10:56:16;;;;;;;3.90;0.73;;;;;;;22.84;41.15;100830.16;3752069;22;20035;-81
2021/06/17 10:58:52;;;;;;;1.15;0.40;;;;;;;22.75;40.54;100834.31;3782732;22;20626;-81
2021/06/17 11:10:53;;;;;;;2.60;0.80;;;;;;;23.77;42.21;100836.63;1452632;22;20606;-81
2021/06/17 11:16:14;;;;;;;2.13;0.80;;;;;;;24.58;34.97;100839.22;3598452;39;20044;-82
2021/06/17 11:19:03;;;;;;;3.17;0.75;;;;;;;24.76;35.00;100838.72;3592155;39;20025;-83
2021/06/17 11:21:53;;;;;;;;;;;;;;;25.09;40.93;100838.72;3636959;22;20032;-81
2021/06/17 11:24:25;;;;;;;1.00;0.50;;;;;;;25.26;37.72;100834.66;3585358;39;19938;-82
2021/06/17 11:26:53;;;;;;;4.20;0.60;;;;;;;25.48;34.17;100839.06;3536058;40;20031;-82
2021/06/17 11:29:36;;;;;;;2.30;0.60;;;;;;;26.07;36.71;100830.53;3543341;40;20063;-83
2021/06/17 11:32:24;;;;;;;3.03;0.80;;;;;;;26.67;37.22;100827.19;3552574;40;20039;-83
2021/06/17 11:35:23;;;;;;;2.42;0.73;;;;;;;27.29;37.10;100834.13;3572453;40;20037;-83
2021/06/17 11:38:00;;;;;;;2.03;0.63;;;;;;;27.68;35.12;100825.09;3535316;40;20213;-83
2021/06/17 11:40:27;;;;;;;1.30;0.60;;;;;;;27.92;33.85;100826.50;3536138;40;20600;-84
2021/06/17 11:42:54;;;;;;;1.75;0.75;;;;;;;28.26;31.44;100831.38;3536476;40;20102;-83
2021/06/17 11:45:47;;;;;;;1.55;0.65;;;;;;;28.89;34.84;100842.28;3540298;40;20374;-83
2021/06/17 11:48:14;;;;;;;1.98;0.63;;;;;;;29.15;31.95;100843.31;3535300;40;20490;-83
2021/06/17 11:50:43;;;;;;;2.75;0.70;;;;;;;29.67;30.35;100835.44;3534222;40;20044;-83
2021/06/17 11:53:22;;;;;;;2.35;0.52;;;;;;;30.38;31.65;100839.81;3545426;40;20076;-84
2021/06/17 11:56:28;;;;;;;1.35;0.77;;;;;;;31.07;32.36;100843.31;3534873;40;20859;-84
2021/06/17 11:59:15;;;;;;;;;;;;;;;31.73;34.73;100845.16;3531352;40;20035;-84
2021/06/17 12:02:06;;;;;;;2.20;0.70;;;;;;;32.20;30.58;100840.91;3554526;40;19945;-83
2021/06/17 12:04:53;;;;;;;2.28;0.95;;;;;;;32.31;28.86;100834.28;3539682;40;20077;-84
2021/06/17 12:07:27;;;;;;;3.13;0.82;;;;;;;32.20;27.16;100847.16;3535472;40;20040;-83
2021/06/17 12:10:20;;;;;;;2.63;0.98;;;;;;;32.06;29.09;100842.44;3534095;40;20030;-84
2021/06/17 12:12:55;;;;;;;2.72;0.93;;;;;;;31.73;27.41;100839.75;3536423;40;20079;-84
2021/06/17 12:15:23;;;;;;;1.92;0.90;;;;;;;31.42;27.49;100842.25;3552094;40;20050;-84
2021/06/17 12:18:04;;;;;;;2.15;0.95;;;;;;;31.41;28.70;100851.34;3556061;40;20032;-84
2021/06/17 12:20:34;;;;;;;2.47;0.82;;;;;;;31.35;24.64;100852.03;3529091;40;20047;-84
2021/06/17 12:23:04;;;;;;;1.77;0.70;;;;;;;31.42;24.33;100854.91;3535300;40;20055;-84
2021/06/17 12:25:43;;;;;;;2.80;0.93;;;;;;;31.70;26.47;100855.44;3526921;40;20054;-84
2021/06/17 12:28:14;;;;;;;2.33;0.90;;;;;;;31.83;24.25;100854.94;3526682;40;20118;-84
2021/06/17 12:30:45;;;;;;;2.15;1.05;;;;;;;32.08;24.45;100864.72;3532845;40;20320;-84
2021/06/17 12:33:14;;;;;;;2.83;0.98;;;;;;;32.40;25.35;100852.22;3524757;40;20036;-84
2021/06/17 12:35:49;;;;;;;3.42;0.95;;;;;;;32.77;25.73;100865.91;3532023;40;20050;-84
2021/06/17 12:38:33;;;;;;;2.13;0.82;;;;;;;33.11;26.01;100870.19;3524570;40;20041;-84
2021/06/17 12:41:14;;;;;;;1.10;0.57;;;;;;;33.22;25.64;100866.22;3526464;40;20072;-84
2021/06/17 12:43:42;;;;;;;2.65;0.90;;;;;;;33.03;24.08;100864.81;3527156;40;20076;-84
2021/06/17 12:46:11;;;;;;;3.20;0.63;;;;;;;32.92;25.31;100873.34;3521840;40;20044;-84
2021/06/17 12:54:30;;;;;;;1.48;0.70;;;;;;;32.77;23.95;100879.44;3526651;40;20024;-84
2021/06/17 12:57:04;;;;;;;3.05;0.75;;;;;;;32.63;24.64;100872.06;3532551;40;20042;-84
2021/06/17 12:59:56;;;;;;;3.78;1.30;;;;;;;32.54;25.85;100878.50;3534671;40;20040;-84
2021/06/17 13:02:23;;;;;;;1.85;0.93;;;;;;;32.44;22.19;100883.25;3542363;40;20090;-85
2021/06/17 13:05:04;;;;;;;1.58;0.80;;;;;;;32.64;25.18;100876.44;3551762;40;20042;-84
2021/06/17 13:07:33;;;;;;;3.53;0.90;;;;;;;32.70;21.94;100883.88;3535823;40;20040;-84
2021/06/17 13:10:13;;;;;;;2.50;0.80;;;;;;;33.02;24.68;100888.31;3527255;40;20083;-85
2021/06/17 13:12:45;;;;;;;1.95;0.77;;;;;;;33.09;21.84;100874.91;3524563;40;20024;-84
2021/06/17 13:15:24;;;;;;;3.42;0.90;;;;;;;33.41;23.44;100867.66;3533219;40;20038;-85
2021/06/17 13:18:05;;;;;;;2.75;1.02;;;;;;;33.67;24.13;100878.16;3506821;40;20032;-84
2021/06/17 13:20:38;;;;;;;3.40;1.00;;;;;;;33.85;22.69;100881.34;3523222;40;20032;-85
2021/06/17 13:23:29;;;;;;;2.53;0.85;;;;;;;34.03;21.03;100878.38;3530983;40;20458;-84
2021/06/17 13:26:05;;;;;;;2.58;0.90;;;;;;;34.25;22.91;100865.78;3520045;40;21118;-84
2021/06/17 13:28:31;;;;;;;2.20;0.87;;;;;;;34.25;22.20;100874.75;3508322;40;20061;-84
2021/06/17 13:31:24;;;;;;;;;;;;;;;34.47;25.67;100877.59;3525303;40;20071;-84
2021/06/17 13:33:57;;;;;;;3.45;1.30;;;;;;;34.25;23.63;100880.16;3517657;40;19947;-84
2021/06/17 13:36:30;;;;;;;2.00;0.90;;;;;;;34.04;22.83;100885.47;3521437;40;20056;-84
2021/06/17 13:38:58;;;;;;;2.53;0.80;;;;;;;33.71;22.32;100883.03;3518953;40;20040;-84
2021/06/17 13:41:27;;;;;;;2.65;0.80;;;;;;;33.55;21.85;100881.25;3511099;41;20085;-84
2021/06/17 13:43:54;;;;;;;2.58;0.98;;;;;;;33.50;20.81;100886.38;3527568;40;20515;-84
2021/06/17 13:46:21;;;;;;;1.50;0.82;;;;;;;33.57;21.50;100894.63;3534971;40;20032;-84
2021/06/17 13:48:52;;;;;;;1.75;0.75;;;;;;;33.71;21.89;100888.44;3528438;40;20405;-84
2021/06/17 13:51:21;;;;;;;1.45;0.65;;;;;;;33.89;21.06;100881.84;3530815;40;20043;-84
2021/06/17 13:53:55;;;;;;;1.23;0.68;;;;;;;34.14;23.19;100888.75;3529795;40;20039;-85
2021/06/17 13:56:23;;;;;;;3.97;1.20;;;;;;;34.16;20.60;100889.41;3528697;40;20040;-84
2021/06/17 13:58:54;;;;;;;2.20;0.73;;;;;;;34.25;22.90;100891.00;3535777;40;20039;-84
2021/06/17 14:01:25;;;;;;;2.47;0.90;;;;;;;34.15;22.08;100871.47;3529539;40;20385;-84
2021/06/17 14:03:57;;;;;;;0.95;0.63;;;;;;;34.37;23.41;100890.56;3525780;40;20028;-84
2021/06/17 14:06:24;;;;;;;1.55;0.93;;;;;;;34.43;20.49;100895.25;3529069;40;20068;-84
2021/06/17 14:08:52;;;;;;;1.65;0.80;;;;;;;34.59;20.14;100900.53;3529812;40;20082;-84
2021/06/17 14:11:20;;;;;;;1.70;0.65;;;;;;;34.66;19.88;100909.59;3536870;40;20020;-84
2021/06/17 14:13:47;;;;;;;2.10;0.88;;;;;;;34.60;20.33;100902.19;3531562;40;20044;-84
2021/06/17 14:16:17;;;;;;;1.25;0.80;;;;;;;34.55;20.42;100899.22;3530111;40;20032;-84
2021/06/17 14:18:49;;;;;;;2.60;1.10;;;;;;;34.44;21.93;100910.50;3537002;40;20493;-85
2021/06/17 14:21:17;;;;;;;3.85;1.33;;;;;;;34.22;20.64;100904.94;3530684;40;20474;-84
2021/06/17 14:23:48;;;;;;;2.67;1.00;;;;;;;34.18;20.11;100909.06;3519832;40;20431;-83
2021/06/17 14:26:14;;;;;;;1.92;0.70;;;;;;;34.21;21.88;100908.66;3520643;40;20641;-83
2021/06/17 14:28:41;;;;;;;1.85;0.70;;;;;;;34.32;22.02;100908.25;3526059;40;20068;-84
2021/06/17 14:31:11;;;;;;;2.58;1.00;;;;;;;34.56;20.96;100911.72;3524860;40;20401;-84
2021/06/17 14:33:40;;;;;;;1.95;0.90;;;;;;;34.70;20.94;100910.06;3523927;40;20052;-85
2021/06/17 14:36:07;;;;;;;2.97;0.98;;;;;;;34.74;19.09;100906.78;3530864;40;20097;-84
2021/06/17 14:38:37;;;;;;;1.95;0.90;;;;;;;34.80;20.75;100902.47;3517127;40;20061;-84
2021/06/17 14:41:06;;;;;;;2.10;0.65;;;;;;;34.97;20.67;100908.56;3517881;40;20040;-84
2021/06/17 14:43:33;;;;;;;2.80;0.90;;;;;;;35.07;19.13;100919.97;3516100;40;20072;-85
2021/06/17 14:45:59;;;;;;;1.65;0.80;;;;;;;35.18;20.73;100905.91;3517019;40;20149;-85
2021/06/17 14:48:26;;;;;;;0.80;0.63;;;;;;;35.32;20.41;100896.88;3515293;40;20032;-84
2021/06/17 14:50:57;;;;;;;2.50;0.98;;;;;;;35.63;19.80;100909.34;3520915;40;20037;-83
2021/06/17 14:53:30;;;;;;;1.73;0.70;;;;;;;35.81;20.86;100901.59;3518969;40;20084;-83
2021/06/17 14:55:57;;;;;;;2.70;0.80;;;;;;;35.86;20.72;100904.56;3506018;40;20072;-83
2021/06/17 14:58:24;;;;;;;2.22;0.80;;;;;;;36.01;18.34;100895.50;3512993;40;20044;-84
2021/06/17 15:00:52;;;;;;;2.67;0.90;;;;;;;36.27;18.54;100912.03;3542433;40;20093;-85
2021/06/17 15:03:22;;;;;;;2.20;0.85;;;;;;;36.38;20.39;100907.91;3517000;40;20069;-85
2021/06/17 15:05:51;;;;;;;1.90;0.70;;;;;;;36.38;19.59;100914.19;3525494;40;20032;-85
2021/06/17 15:08:20;;;;;;;1.75;0.73;;;;;;;36.29;19.77;100936.28;3523479;40;20123;-84
2021/06/17 15:10:50;;;;;;;1.92;0.70;;;;;;;36.08;19.94;100926.28;3538837;40;20825;-84
2021/06/17 15:13:22;;;;;;;2.85;0.70;;;;;;;35.84;19.93;100925.66;3517698;40;20138;-84
2021/06/17 15:15:49;;;;;;;1.83;0.80;;;;;;;35.48;18.32;100922.13;3525577;40;20044;-84
2021/06/17 15:18:17;;;;;;;1.85;0.68;;;;;;;35.02;19.74;100906.13;3518930;40;20032;-84
2021/06/17 15:20:45;;;;;;;2.85;0.93;;;;;;;34.74;20.20;100922.22;3526689;40;20430;-84
2021/06/17 15:23:12;;;;;;;2.25;0.90;;;;;;;34.30;19.73;100912.97;3515882;41;20048;-84
2021/06/17 15:25:39;;;;;;;;;;;;;;;34.27;22.25;100940.47;3558199;40;20041;-84
2021/06/17 15:28:06;;;;;;;1.67;0.77;;;;;;;33.86;20.67;100939.09;3598169;40;19978;-84
2021/06/17 15:30:35;;;;;;;1.98;0.82;;;;;;;33.58;20.67;100939.63;3582926;40;20033;-84
2021/06/17 15:36:05;;;;;;;3.10;0.93;;;;;;;33.23;20.99;100952.66;3629645;39;20080;-84
2021/06/17 15:38:34;;;;;;;1.58;0.75;;;;;;;33.16;21.48;100954.41;3617212;39;20297;-85
2021/06/17 15:41:01;;;;;;;1.70;0.80;;;;;;;33.12;21.73;100954.91;3633042;39;20031;-84
2021/06/17 15:43:27;;;;;;;;;;;;;;;33.25;23.80;100971.41;3631580;39;20634;-84
2021/06/17 15:45:57;;;;;;;2.22;0.70;;;;;;;33.10;22.98;100968.63;3616466;39;19951;-84
2021/06/17 15:48:38;;;;;;;2.45;0.93;;;;;;;32.94;23.09;100976.78;3630644;39;20067;-84
2021/06/17 15:51:05;;;;;;;2.10;0.80;;;;;;;32.60;23.17;100983.28;3630178;39;20027;-84
2021/06/17 15:53:34;;;;;;;2.47;0.82;;;;;;;32.36;23.78;100989.56;3621035;39;20040;-84
2021/06/17 15:56:04;;;;;;;2.47;0.90;;;;;;;32.07;23.86;100984.59;3621049;39;20024;-84
2021/06/17 16:07:33;;;;;;;3.35;0.95;;;;;;;30.79;25.14;100984.81;3720329;22;20325;-83
2021/06/17 16:19:28;;;;;;;4.07;1.00;;;;;;;29.33;26.50;100990.44;1224617;22;20184;-83
2021/06/17 16:22:20;;;;;;;3.05;0.85;;;;;;;29.11;26.85;100992.53;1223538;22;21627;-83
2021/06/17 16:30:56;;;;;;;3.33;0.98;;;;;;;28.45;28.06;101016.72;3696615;22;20024;-82
2021/06/17 16:36:38;;;;;;;2.17;0.70;;;;;;;28.05;28.53;101017.66;1227052;22;21590;-82
2021/06/17 16:42:25;;;;;;;1.90;0.73;;;;;;;27.72;29.01;101020.72;1223407;22;21470;-81
2021/06/17 16:48:11;;;;;;;1.42;0.43;;;;;;;27.40;29.88;101021.72;1227069;22;21544;-83
2021/06/17 17:09:03;;;;;;;2.70;0.70;;;;;;;26.49;30.51;101050.09;3742837;22;20026;-82
2021/06/17 17:11:56;;;;;;;2.42;0.70;;;;;;;26.40;30.66;101059.72;3694251;22;20115;-83
2021/06/17 17:33:00;;;;;;;1.88;0.70;;;;;;;26.12;32.34;101069.22;1266120;22;21365;-83
2021/06/17 17:38:46;;;;;;;1.98;0.60;;;;;;;26.00;32.71;101085.41;1223136;22;21502;-82
2021/06/17 17:54:05;;;;;;;2.28;0.70;;;;;;;25.51;32.80;101098.22;1230242;22;22072;-82
2021/06/17 17:59:50;;;;;;;1.23;0.50;;;;;;;25.24;32.94;101103.91;1232328;22;21510;-83
2021/06/17 18:11:25;;;;;;;1.42;0.40;;;;;;;24.72;34.00;101113.19;1217621;22;22387;-82
2021/06/17 18:33:05;;;;;;;1.70;0.40;;;;;;;24.13;34.50;101129.16;1264102;22;21590;-82
2021/06/17 18:54:17;;;;;;;0.73;0.40;;;;;;;23.42;35.66;101162.63;1224094;22;21462;-82
2021/06/17 19:12:36;;;;;;;2.05;0.60;;;;;;;22.90;35.93;101192.78;1223737;22;21989;-81
2021/06/17 19:30:53;;;;;;;2.67;0.45;;;;;;;22.35;36.57;101212.31;1227583;22;21369;-81
2021/06/17 19:36:51;;;;;;;1.52;0.45;;;;;;;22.22;36.82;101214.06;1221369;22;21403;-82
2021/06/17 20:10:56;;;;;;;1.38;0.50;;;;;;;21.56;37.62;101260.63;1226926;23;21418;-81
2021/06/17 20:25:22;;;;;;;0.68;0.20;;;;;;;21.09;38.07;101266.03;3592217;39;20343;-74
2021/06/17 20:27:49;;;;;;;0.70;0.30;;;;;;;21.07;38.62;101273.22;3589312;39;20052;-75
2021/06/17 20:30:17;;;;;;;0.50;0.30;;;;;;;21.01;38.47;101269.13;3594248;39;20447;-73
2021/06/17 20:32:45;;;;;;;1.02;0.30;;;;;;;20.94;38.74;101284.56;3581663;40;20035;-73
2021/06/17 20:35:13;;;;;;;2.42;0.45;;;;;;;20.92;39.49;101291.75;3597796;39;20392;-75
2021/06/17 20:37:41;;;;;;;0.68;0.47;;;;;;;20.84;39.18;101288.69;3587706;40;20028;-75
2021/06/17 20:40:09;;;;;;;2.08;0.32;;;;;;;20.79;38.91;101288.09;3599189;39;20036;-76
2021/06/17 20:42:36;;;;;;;0.70;0.45;;;;;;;20.70;38.66;101285.94;3596938;39;20041;-75
2021/06/17 20:45:04;;;;;;;1.77;0.40;;;;;;;20.65;38.65;101293.28;3588082;40;20527;-75
2021/06/17 20:47:31;;;;;;;0.55;0.43;;;;;;;20.58;38.31;101286.59;3599473;39;20319;-76
2021/06/17 20:49:59;;;;;;;0.80;0.40;;;;;;;20.44;38.70;101285.53;3589467;40;20028;-75
2021/06/17 20:52:26;;;;;;;1.00;0.60;;;;;;;20.40;38.85;101294.59;3587792;39;20301;-74
2021/06/17 20:54:54;;;;;;;0.60;0.40;;;;;;;20.30;38.90;101293.38;3598588;39;20401;-75
2021/06/17 20:57:23;;;;;;;1.58;0.32;;;;;;;20.29;38.78;101302.28;3601166;39;20113;-75
2021/06/17 20:59:50;;;;;;;1.85;0.60;;;;;;;20.23;38.68;101307.06;3590000;39;20634;-76
2021/06/17 21:02:18;;;;;;;0.90;0.50;;;;;;;20.05;39.04;101287.69;3595369;40;20044;-75
2021/06/17 21:04:50;;;;;;;0.70;0.47;;;;;;;20.05;39.09;101308.88;3589824;40;20124;-75
2021/06/17 21:07:19;;;;;;;1.80;0.50;;;;;;;20.00;38.89;101305.63;3585183;40;20036;-75
2021/06/17 21:09:48;;;;;;;1.23;0.60;;;;;;;19.93;39.18;101311.25;3604289;39;20028;-76
2021/06/17 21:12:15;;;;;;;2.03;0.45;;;;;;;19.88;39.19;101318.59;3600768;39;20557;-75
2021/06/17 21:14:42;;;;;;;0.90;0.40;;;;;;;19.77;39.01;101302.38;3599428;39;20067;-75
2021/06/17 21:17:12;;;;;;;1.73;0.45;;;;;;;19.77;39.38;101320.94;3593575;40;20122;-75
2021/06/17 21:19:39;;;;;;;0.23;0.20;;;;;;;19.68;39.45;101318.75;3592932;40;20036;-75
2021/06/17 21:22:08;;;;;;;1.70;0.40;;;;;;;19.62;39.37;101311.97;3592421;39;20463;-75
2021/06/17 21:24:39;;;;;;;0.68;0.40;;;;;;;19.61;39.53;101327.91;3602110;39;20042;-75
2021/06/17 21:27:09;;;;;;;1.38;0.47;;;;;;;19.57;39.54;101336.94;3597487;39;20032;-75
2021/06/17 21:29:38;;;;;;;1.00;0.35;;;;;;;19.49;39.61;101331.16;3596584;40;20056;-76
2021/06/17 21:32:05;;;;;;;1.98;0.60;;;;;;;19.38;39.95;101319.31;3593584;39;20115;-75
2021/06/17 21:34:32;;;;;;;1.27;0.30;;;;;;;19.43;40.19;101337.63;3602122;39;20044;-75
2021/06/17 21:37:04;;;;;;;0.52;0.40;;;;;;;19.36;39.93;101337.09;3600106;39;20035;-75
2021/06/17 21:39:34;;;;;;;0.88;0.30;;;;;;;19.36;40.26;101345.03;3600882;39;20035;-76
2021/06/17 21:42:05;;;;;;;2.00;0.50;;;;;;;19.29;39.99;101338.28;3589219;40;20040;-75
2021/06/17 21:44:33;;;;;;;0.85;0.57;;;;;;;19.31;40.79;101349.69;3590390;40;20032;-76
2021/06/17 21:47:02;;;;;;;0.98;0.47;;;;;;;19.24;40.52;101345.59;3601197;39;20622;-76
2021/06/17 21:49:30;;;;;;;2.15;0.70;;;;;;;19.21;40.59;101343.13;3596888;39;20454;-75
2021/06/17 21:51:56;;;;;;;1.02;0.60;;;;;;;19.18;41.04;101343.25;3588937;40;20731;-75
2021/06/17 21:54:25;;;;;;;0.60;0.40;;;;;;;19.16;40.84;101339.84;3599620;39;20482;-75
2021/06/17 21:56:52;;;;;;;0.85;0.45;;;;;;;19.15;41.05;101343.41;3593502;40;20745;-76
2021/06/17 21:59:23;;;;;;;1.48;0.45;;;;;;;19.17;41.29;101352.16;3600409;39;20036;-75
2021/06/17 22:01:50;;;;;;;2.97;0.70;;;;;;;19.12;41.48;101354.16;3605232;39;20039;-76
2021/06/17 22:04:18;;;;;;;2.05;0.68;;;;;;;19.12;41.68;101351.50;3595970;39;20044;-75
2021/06/17 22:06:45;;;;;;;1.55;0.63;;;;;;;19.07;41.71;101356.16;3591442;40;20040;-75
2021/06/17 22:09:14;;;;;;;0.63;0.40;;;;;;;19.05;41.31;101364.16;3599642;39;20032;-75
2021/06/17 22:11:41;;;;;;;1.00;0.40;;;;;;;18.95;41.46;101362.03;3593546;39;20043;-75
2021/06/17 22:14:09;;;;;;;1.95;0.55;;;;;;;18.95;41.57;101372.59;3594245;40;20036;-76
2021/06/17 22:16:40;;;;;;;;;;;;;;;18.99;40.36;101379.47;3595914;39;21062;-75
2021/06/17 22:19:08;;;;;;;1.58;0.50;;;;;;;18.83;42.18;101358.16;3589007;40;19941;-76
2021/06/17 22:21:35;;;;;;;;;;;;;;;18.90;40.37;101381.63;3600808;39;20531;-75
2021/06/17 22:24:02;;;;;;;1.67;0.63;;;;;;;18.84;42.51;101378.41;3585441;40;19932;-76
2021/06/17 22:26:28;;;;;;;0.97;0.50;;;;;;;18.74;42.08;101370.03;3580298;40;20060;-75
2021/06/17 22:28:55;;;;;;;2.13;0.40;;;;;;;18.73;42.29;101378.91;3592806;40;20432;-75
2021/06/17 22:31:22;;;;;;;2.63;0.60;;;;;;;18.61;42.95;101363.56;3585228;40;20062;-75
2021/06/17 22:33:50;;;;;;;2.63;0.63;;;;;;;18.59;42.92;101373.34;3581750;40;20423;-75
2021/06/17 22:36:17;;;;;;;1.65;0.50;;;;;;;18.54;42.48;101381.47;3590137;40;20068;-75
2021/06/17 22:38:47;;;;;;;2.33;0.90;;;;;;;18.48;43.02;101376.47;3591297;40;20094;-78
2021/06/17 22:41:16;;;;;;;1.38;0.50;;;;;;;18.41;42.81;101383.84;3601094;40;20449;-78
2021/06/17 22:43:44;;;;;;;2.10;0.55;;;;;;;18.35;43.13;101376.19;3597726;40;20559;-78
2021/06/17 22:46:11;;;;;;;1.50;0.45;;;;;;;18.25;43.75;101372.22;3598816;40;20040;-77
2021/06/17 22:48:39;;;;;;;1.55;0.70;;;;;;;18.18;44.00;101370.75;3590147;40;20048;-78
2021/06/17 22:51:06;;;;;;;0.60;0.40;;;;;;;18.16;43.73;101383.19;3587346;40;20037;-78
2021/06/17 22:53:39;;;;;;;1.05;0.40;;;;;;;18.07;43.04;101378.31;3602556;40;20412;-78
2021/06/17 22:56:06;;;;;;;2.20;0.60;;;;;;;17.97;44.32;101376.97;3599496;40;20039;-78
2021/06/17 22:58:34;;;;;;;;;;;;;;;17.93;42.08;101381.53;3600332;40;20033;-78
2021/06/17 23:01:01;;;;;;;1.15;0.60;;;;;;;17.82;44.02;101379.34;3599742;40;19937;-78
2021/06/17 23:03:33;;;;;;;1.30;0.30;;;;;;;17.74;44.20;101378.81;3597898;40;20081;-78
2021/06/17 23:06:04;;;;;;;2.45;0.70;;;;;;;17.64;44.26;101382.72;3588747;40;20267;-78
2021/06/17 23:08:32;;;;;;;1.20;0.43;;;;;;;17.55;44.63;101385.75;3595623;40;20061;-78
2021/06/17 23:11:02;;;;;;;1.08;0.50;;;;;;;17.46;44.82;101380.84;3599512;40;20029;-77
2021/06/17 23:13:32;;;;;;;1.25;0.50;;;;;;;17.37;45.14;101388.19;3596884;40;20040;-78
2021/06/17 23:16:03;;;;;;;0.73;0.50;;;;;;;17.26;44.46;101379.84;3599916;40;20029;-78
2021/06/17 23:18:32;;;;;;;1.83;0.40;;;;;;;17.15;45.04;101384.69;3600189;40;20029;-77
2021/06/17 23:21:05;;;;;;;1.92;0.75;;;;;;;17.08;44.58;101375.28;3600269;39;21051;-78
2021/06/17 23:23:31;;;;;;;2.35;0.65;;;;;;;16.98;45.92;101387.09;3597983;40;20033;-78
2021/06/17 23:26:00;;;;;;;2.17;0.77;;;;;;;16.91;45.58;101388.28;3607232;39;20028;-78
2021/06/17 23:28:27;;;;;;;2.83;0.52;;;;;;;16.81;46.36;101393.88;3609424;39;20096;-77
2021/06/17 23:30:55;;;;;;;3.20;0.70;;;;;;;16.75;46.70;101391.47;3601770;40;20044;-78
2021/06/17 23:33:21;;;;;;;0.70;0.32;;;;;;;16.64;45.99;101395.41;3601077;39;20024;-78
2021/06/17 23:35:51;;;;;;;2.63;0.63;;;;;;;16.55;46.36;101401.88;3615263;39;20077;-78
2021/06/17 23:38:19;;;;;;;2.45;0.50;;;;;;;16.48;46.37;101400.38;3610162;39;20024;-78